Time,TemperatureF,DewpointF,PressureIn,WindDirection,WindDirectionDegrees,WindSpeedMPH,WindSpeedGustMPH,Humidity,HourlyPrecipIn,Conditions,Clouds,dailyrainin,SoftwareType,DateUTC
2013-11-17 11:27:00,51.2,51.2,30.18,WSW,240,2.0,8.0,100,0.00,,,0.01,Wunderground v.1.15,2013-11-17 16:27:00,
2013-11-17 11:29:00,51.2,51.2,30.18,SSW,194,2.0,8.0,100,0.00,,,0.01,Wunderground v.1.15,2013-11-17 16:29:00,
2013-11-17 11:35:00,51.4,51.4,30.17,SSE,159,3.0,8.0,100,0.00,,,0.01,Wunderground v.1.15,2013-11-17 16:35:00,
2013-11-17 11:40:00,51.5,51.5,30.17,SSW,207,4.0,8.0,100,0.00,,,0.01,Wunderground v.1.15,2013-11-17 16:40:00,
2013-11-17 11:50:00,51.4,51.4,30.17,WSW,241,2.0,2.0,100,0.00,,,0.01,Wunderground v.1.15,2013-11-17 16:50:00,
2013-11-17 11:55:00,51.5,51.5,30.17,WSW,252,1.0,8.0,100,0.00,,,0.01,Wunderground v.1.15,2013-11-17 16:55:00,
2013-11-17 12:00:00,51.5,51.5,30.17,SSW,194,1.0,8.0,100,0.00,,,0.01,Wunderground v.1.15,2013-11-17 17:00:00,
2013-11-17 12:05:00,51.7,51.7,30.16,SW,217,2.0,8.0,100,0.00,,,0.01,Wunderground v.1.15,2013-11-17 17:05:00,
2013-11-17 12:09:00,51.8,51.8,30.16,SW,214,2.0,2.0,100,0.00,,,0.01,Wunderground v.1.15,2013-11-17 17:09:00,
2013-11-17 12:14:00,52.0,52.0,30.15,SW,236,1.0,8.0,100,0.00,,,0.01,Wunderground v.1.15,2013-11-17 17:14:00,
2013-11-17 12:20:00,52.2,52.2,30.15,SSW,207,1.0,8.0,100,0.00,,,0.01,Wunderground v.1.15,2013-11-17 17:20:00,
2013-11-17 12:25:00,52.5,52.5,30.14,South,188,1.0,8.0,100,0.00,,,0.01,Wunderground v.1.15,2013-11-17 17:25:00,
2013-11-17 12:30:00,52.8,52.8,30.14,SW,223,2.0,8.0,100,0.00,,,0.01,Wunderground v.1.15,2013-11-17 17:30:00,
2013-11-17 12:35:00,52.9,52.9,30.14,SSW,196,2.0,8.0,100,0.00,,,0.01,Wunderground v.1.15,2013-11-17 17:35:00,
2013-11-17 12:40:00,53.1,53.1,30.13,SSW,200,1.0,1.0,100,0.00,,,0.01,Wunderground v.1.15,2013-11-17 17:40:00,
2013-11-17 12:49:00,53.2,53.2,30.13,SSW,200,1.0,8.0,100,0.00,,,0.01,Wunderground v.1.15,2013-11-17 17:49:00,
2013-11-17 12:54:00,53.3,53.3,30.13,South,174,1.0,8.0,100,0.00,,,0.01,Wunderground v.1.15,2013-11-17 17:54:00,
2013-11-17 13:00:00,53.5,53.5,30.13,South,169,2.0,8.0,100,0.00,,,0.01,Wunderground v.1.15,2013-11-17 18:00:00,
2013-11-17 13:05:00,53.6,53.6,30.12,SSE,163,3.0,8.0,100,0.00,,,0.01,Wunderground v.1.15,2013-11-17 18:05:00,
2013-11-17 13:10:00,53.7,53.7,30.12,SW,225,3.0,3.0,100,0.00,,,0.01,Wunderground v.1.15,2013-11-17 18:10:00,
2013-11-17 13:15:00,53.8,53.8,30.12,SSE,155,3.0,4.0,100,0.00,,,0.01,Wunderground v.1.15,2013-11-17 18:15:00,
2013-11-17 13:20:00,53.9,53.9,30.11,South,177,3.0,8.0,100,0.00,,,0.01,Wunderground v.1.15,2013-11-17 18:20:00,
2013-11-17 13:25:00,54.0,54.0,30.11,SSW,202,4.0,8.0,100,0.00,,,0.01,Wunderground v.1.15,2013-11-17 18:25:00,
2013-11-17 13:34:00,54.2,54.2,30.10,SSE,167,5.0,8.0,100,0.00,,,0.01,Wunderground v.1.15,2013-11-17 18:34:00,
2013-11-17 13:40:00,54.2,54.2,30.10,SSW,208,5.0,5.0,100,0.00,,,0.01,Wunderground v.1.15,2013-11-17 18:40:00,
2013-11-17 13:50:00,54.2,54.2,30.09,South,175,6.0,9.0,100,0.00,,,0.01,Wunderground v.1.15,2013-11-17 18:50:00,
2013-11-17 13:55:00,54.3,54.3,30.10,SSW,196,6.0,9.0,100,0.00,,,0.01,Wunderground v.1.15,2013-11-17 18:55:00,
2013-11-17 14:00:00,54.3,54.3,30.10,SSW,198,6.0,6.0,100,0.00,,,0.01,Wunderground v.1.15,2013-11-17 19:00:00,
2013-11-17 14:05:00,54.4,54.4,30.09,South,175,6.0,8.0,100,0.00,,,0.01,Wunderground v.1.15,2013-11-17 19:05:00,
2013-11-17 14:15:00,54.6,54.6,30.09,SSE,162,5.0,8.0,100,0.00,,,0.01,Wunderground v.1.15,2013-11-17 19:15:00,
2013-11-17 14:20:00,54.8,54.8,30.10,South,175,5.0,8.0,100,0.00,,,0.01,Wunderground v.1.15,2013-11-17 19:20:00,
2013-11-17 14:25:00,54.9,54.9,30.10,SW,221,5.0,8.0,100,0.00,,,0.01,Wunderground v.1.15,2013-11-17 19:25:00,
2013-11-17 14:30:00,54.9,54.9,30.09,South,172,5.0,8.0,100,0.00,,,0.01,Wunderground v.1.15,2013-11-17 19:30:00,
2013-11-17 14:35:00,54.9,54.9,30.09,SE,137,5.0,8.0,100,0.00,,,0.01,Wunderground v.1.15,2013-11-17 19:35:00,
2013-11-17 14:44:00,54.9,54.9,30.08,SSW,194,4.0,9.0,100,0.00,,,0.01,Wunderground v.1.15,2013-11-17 19:44:00,
2013-11-17 14:49:00,55.0,55.0,30.09,SSE,159,5.0,8.0,100,0.00,,,0.01,Wunderground v.1.15,2013-11-17 19:49:00,
2013-11-17 14:54:00,55.0,55.0,30.09,South,171,5.0,8.0,100,0.00,,,0.01,Wunderground v.1.15,2013-11-17 19:54:00,
2013-11-17 14:59:00,55.0,55.0,30.08,SSW,196,5.0,5.0,100,0.00,,,0.01,Wunderground v.1.15,2013-11-17 19:59:00,
2013-11-17 15:05:00,55.1,55.1,30.08,South,186,4.0,6.0,100,0.00,,,0.01,Wunderground v.1.15,2013-11-17 20:05:00,
2013-11-17 15:10:00,55.1,55.1,30.08,South,186,5.0,5.0,100,0.00,,,0.01,Wunderground v.1.15,2013-11-17 20:10:00,
2013-11-17 15:15:00,55.1,55.1,30.08,SSE,163,5.0,8.0,100,0.00,,,0.01,Wunderground v.1.15,2013-11-17 20:15:00,
2013-11-17 15:20:00,55.2,55.2,30.07,South,191,4.0,8.0,100,0.00,,,0.01,Wunderground v.1.15,2013-11-17 20:20:00,
2013-11-17 15:29:00,55.2,55.2,30.07,South,173,4.0,8.0,100,0.00,,,0.01,Wunderground v.1.15,2013-11-17 20:29:00,
2013-11-17 15:34:00,55.3,55.3,30.07,South,175,4.0,8.0,100,0.00,,,0.01,Wunderground v.1.15,2013-11-17 20:34:00,
2013-11-17 15:40:00,55.3,55.3,30.07,South,178,3.0,8.0,100,0.00,,,0.01,Wunderground v.1.15,2013-11-17 20:40:00,
2013-11-17 15:45:00,55.4,55.4,30.06,SSE,166,3.0,8.0,100,0.00,,,0.01,Wunderground v.1.15,2013-11-17 20:45:00,
2013-11-17 15:50:00,55.4,55.4,30.06,SSE,151,3.0,8.0,100,0.00,,,0.01,Wunderground v.1.15,2013-11-17 20:50:00,
2013-11-17 15:55:00,55.4,55.4,30.06,SSE,167,3.0,8.0,100,0.00,,,0.01,Wunderground v.1.15,2013-11-17 20:55:00,
2013-11-17 16:00:00,55.5,55.5,30.06,South,188,4.0,8.0,100,0.00,,,0.01,Wunderground v.1.15,2013-11-17 21:00:00,
2013-11-17 16:05:00,55.5,55.5,30.05,South,175,4.0,8.0,100,0.00,,,0.02,Wunderground v.1.15,2013-11-17 21:05:00,
2013-11-17 16:10:00,55.5,55.5,30.05,South,179,4.0,8.0,100,0.00,,,0.02,Wunderground v.1.15,2013-11-17 21:10:00,
2013-11-17 16:19:00,55.7,55.7,30.05,South,175,4.0,8.0,100,0.00,,,0.02,Wunderground v.1.15,2013-11-17 21:19:00,
2013-11-17 16:24:00,55.7,55.7,30.05,South,175,5.0,8.0,100,0.00,,,0.02,Wunderground v.1.15,2013-11-17 21:24:00,
2013-11-17 16:30:00,55.6,55.6,30.04,South,169,5.0,5.0,100,0.00,,,0.02,Wunderground v.1.15,2013-11-17 21:30:00,
2013-11-17 16:35:00,55.7,55.7,30.03,South,175,4.0,8.0,100,0.00,,,0.02,Wunderground v.1.15,2013-11-17 21:35:00,
2013-11-17 16:40:00,55.7,55.7,30.04,South,169,4.0,4.0,100,0.00,,,0.02,Wunderground v.1.15,2013-11-17 21:40:00,
2013-11-17 16:45:00,55.8,55.8,30.04,South,181,4.0,8.0,100,0.00,,,0.02,Wunderground v.1.15,2013-11-17 21:45:00,
2013-11-17 16:50:00,55.8,55.8,30.03,SSW,198,4.0,4.0,100,0.00,,,0.02,Wunderground v.1.15,2013-11-17 21:50:00,
2013-11-17 16:55:00,55.8,55.8,30.03,SSE,163,4.0,5.0,100,0.00,,,0.02,Wunderground v.1.15,2013-11-17 21:55:00,
2013-11-17 17:04:00,55.9,55.9,30.03,South,189,4.0,8.0,100,0.00,,,0.02,Wunderground v.1.15,2013-11-17 22:04:00,
2013-11-17 17:14:00,55.9,55.9,30.02,South,171,4.0,8.0,100,0.00,,,0.02,Wunderground v.1.15,2013-11-17 22:14:00,
2013-11-17 17:19:00,55.9,55.9,30.02,South,169,4.0,8.0,100,0.00,,,0.02,Wunderground v.1.15,2013-11-17 22:19:00,
2013-11-17 17:25:00,55.9,55.9,30.02,SSW,196,4.0,8.0,100,0.00,,,0.02,Wunderground v.1.15,2013-11-17 22:25:00,
2013-11-17 17:30:00,56.0,56.0,30.02,South,188,3.0,3.0,100,0.00,,,0.02,Wunderground v.1.15,2013-11-17 22:30:00,
2013-11-17 17:35:00,56.0,56.0,30.01,SE,138,3.0,8.0,100,0.00,,,0.02,Wunderground v.1.15,2013-11-17 22:35:00,
2013-11-17 17:40:00,56.0,56.0,30.01,SW,215,3.0,8.0,100,0.00,,,0.02,Wunderground v.1.15,2013-11-17 22:40:00,
2013-11-17 17:45:00,56.1,56.1,30.01,SSW,196,3.0,8.0,100,0.00,,,0.02,Wunderground v.1.15,2013-11-17 22:45:00,
2013-11-17 17:50:00,56.2,56.2,30.01,SSW,208,4.0,8.0,100,0.00,,,0.02,Wunderground v.1.15,2013-11-17 22:50:00,
2013-11-17 17:55:00,56.3,56.3,30.00,SW,219,5.0,8.0,100,0.00,,,0.02,Wunderground v.1.15,2013-11-17 22:55:00,
2013-11-17 18:04:00,56.4,56.4,30.00,SSW,194,5.0,6.0,100,0.00,,,0.02,Wunderground v.1.15,2013-11-17 23:04:00,
2013-11-17 18:10:00,56.4,56.4,29.99,South,175,5.0,5.0,100,0.00,,,0.02,Wunderground v.1.15,2013-11-17 23:10:00,
2013-11-17 18:15:00,56.4,56.4,29.99,SSW,196,5.0,8.0,100,0.00,,,0.02,Wunderground v.1.15,2013-11-17 23:15:00,
2013-11-17 18:20:00,56.5,56.5,29.99,South,169,5.0,8.0,100,0.00,,,0.02,Wunderground v.1.15,2013-11-17 23:20:00,
2013-11-17 18:25:00,56.5,56.5,29.99,South,189,5.0,8.0,100,0.00,,,0.02,Wunderground v.1.15,2013-11-17 23:25:00,
2013-11-17 18:30:00,56.5,56.5,29.99,SSW,207,5.0,5.0,100,0.00,,,0.02,Wunderground v.1.15,2013-11-17 23:30:00,
2013-11-17 18:35:00,56.5,56.5,29.99,South,173,4.0,8.0,100,0.00,,,0.02,Wunderground v.1.15,2013-11-17 23:35:00,
2013-11-17 18:44:00,56.6,56.6,29.98,South,186,5.0,7.0,100,0.00,,,0.02,Wunderground v.1.15,2013-11-17 23:44:00,
2013-11-17 18:50:00,56.6,56.6,29.99,South,170,5.0,5.0,100,0.00,,,0.02,Wunderground v.1.15,2013-11-17 23:50:00,
2013-11-17 18:54:00,56.7,56.7,29.99,SSW,196,5.0,8.0,100,0.00,,,0.02,Wunderground v.1.15,2013-11-17 23:54:00,
2013-11-17 19:00:00,56.7,56.7,29.98,SSW,194,4.0,8.0,100,0.00,,,0.02,Wunderground v.1.15,2013-11-18 00:00:00,
2013-11-17 19:05:00,56.7,56.7,29.98,West,276,3.0,8.0,100,0.00,,,0.02,Wunderground v.1.15,2013-11-18 00:05:00,
2013-11-17 19:10:00,56.6,56.6,29.98,South,190,4.0,8.0,100,0.00,,,0.02,Wunderground v.1.15,2013-11-18 00:10:00,
2013-11-17 19:19:00,56.6,56.6,29.97,SSW,202,5.0,5.0,100,0.00,,,0.02,Wunderground v.1.15,2013-11-18 00:19:00,
2013-11-17 19:25:00,56.6,56.6,29.97,SSW,196,5.0,8.0,100,0.00,,,0.02,Wunderground v.1.15,2013-11-18 00:25:00,
2013-11-17 19:30:00,56.6,56.6,29.97,SSW,193,4.0,8.0,100,0.00,,,0.02,Wunderground v.1.15,2013-11-18 00:30:00,
2013-11-17 19:35:00,56.6,56.6,29.96,SSW,196,5.0,8.0,100,0.00,,,0.02,Wunderground v.1.15,2013-11-18 00:35:00,
2013-11-17 19:40:00,56.6,56.6,29.96,SSW,197,6.0,8.0,100,0.00,,,0.02,Wunderground v.1.15,2013-11-18 00:40:00,
2013-11-17 19:45:00,56.5,56.5,29.95,South,180,7.0,9.0,100,0.00,,,0.02,Wunderground v.1.15,2013-11-18 00:45:00,
2013-11-17 19:50:00,56.6,56.6,29.95,South,180,6.0,6.0,100,0.00,,,0.02,Wunderground v.1.15,2013-11-18 00:50:00,
2013-11-17 19:55:00,56.5,56.5,29.95,SSW,196,6.0,8.0,100,0.00,,,0.02,Wunderground v.1.15,2013-11-18 00:55:00,
2013-11-17 20:04:00,56.6,56.6,29.94,SSW,209,7.0,16.0,100,0.00,,,0.03,Wunderground v.1.15,2013-11-18 01:04:00,
2013-11-17 20:09:00,56.5,56.5,29.94,SSW,202,7.0,8.0,100,0.00,,,0.03,Wunderground v.1.15,2013-11-18 01:09:00,
2013-11-17 20:14:00,56.5,56.5,29.93,SSW,193,6.0,8.0,100,0.00,,,0.03,Wunderground v.1.15,2013-11-18 01:14:00,
2013-11-17 20:20:00,56.5,56.5,29.93,SSW,198,6.0,8.0,100,0.00,,,0.03,Wunderground v.1.15,2013-11-18 01:20:00,
2013-11-17 20:25:00,56.5,56.5,29.93,South,181,6.0,10.0,100,0.00,,,0.03,Wunderground v.1.15,2013-11-18 01:25:00,
2013-11-17 20:30:00,56.5,56.5,29.92,West,269,6.0,8.0,100,0.00,,,0.03,Wunderground v.1.15,2013-11-18 01:30:00,
2013-11-17 20:35:00,56.5,56.5,29.92,WSW,257,5.0,8.0,100,0.00,,,0.03,Wunderground v.1.15,2013-11-18 01:35:00,
2013-11-17 20:40:00,56.5,56.5,29.92,South,188,5.0,8.0,100,0.00,,,0.03,Wunderground v.1.15,2013-11-18 01:40:00,
2013-11-17 20:49:00,56.5,56.5,29.92,SW,223,6.0,6.0,100,0.00,,,0.03,Wunderground v.1.15,2013-11-18 01:49:00,
2013-11-17 20:54:00,56.5,56.5,29.91,West,260,6.0,8.0,100,0.00,,,0.03,Wunderground v.1.15,2013-11-18 01:54:00,
2013-11-17 21:00:00,56.5,56.5,29.91,WSW,255,6.0,8.0,100,0.00,,,0.03,Wunderground v.1.15,2013-11-18 02:00:00,
2013-11-17 21:05:00,56.5,56.5,29.90,SSW,212,5.0,8.0,100,0.00,,,0.03,Wunderground v.1.15,2013-11-18 02:05:00,
2013-11-17 21:10:00,56.6,56.6,29.90,SW,215,6.0,8.0,100,0.00,,,0.03,Wunderground v.1.15,2013-11-18 02:10:00,
2013-11-17 21:15:00,56.6,56.6,29.90,SW,229,7.0,8.0,100,0.00,,,0.03,Wunderground v.1.15,2013-11-18 02:15:00,
2013-11-17 21:20:00,56.6,56.6,29.90,SSW,205,7.0,7.0,100,0.00,,,0.03,Wunderground v.1.15,2013-11-18 02:20:00,
2013-11-17 21:29:00,56.7,56.7,29.90,SSW,193,7.0,7.0,100,0.00,,,0.03,Wunderground v.1.15,2013-11-18 02:29:00,
2013-11-17 21:34:00,56.7,56.7,29.89,WSW,258,7.0,8.0,100,0.00,,,0.03,Wunderground v.1.15,2013-11-18 02:34:00,
2013-11-17 21:40:00,56.6,56.6,29.89,WSW,257,6.0,6.0,100,0.00,,,0.03,Wunderground v.1.15,2013-11-18 02:40:00,
2013-11-17 21:45:00,56.6,56.6,29.89,SSW,200,5.0,7.0,100,0.00,,,0.03,Wunderground v.1.15,2013-11-18 02:45:00,
2013-11-17 21:50:00,56.5,56.5,29.89,SW,232,6.0,8.0,100,0.00,,,0.03,Wunderground v.1.15,2013-11-18 02:50:00,
2013-11-17 21:55:00,56.6,56.6,29.88,South,189,7.0,9.0,100,0.00,,,0.03,Wunderground v.1.15,2013-11-18 02:55:00,
2013-11-17 22:00:00,56.6,56.6,29.87,South,187,7.0,7.0,100,0.00,,,0.03,Wunderground v.1.15,2013-11-18 03:00:00,
2013-11-17 22:09:00,56.6,56.6,29.87,SSE,161,6.0,8.0,100,0.00,,,0.03,Wunderground v.1.15,2013-11-18 03:09:00,
2013-11-17 22:15:00,56.7,56.7,29.87,SSW,210,7.0,12.0,100,0.00,,,0.03,Wunderground v.1.15,2013-11-18 03:15:00,
2013-11-17 22:25:00,56.7,56.7,29.86,SSW,199,6.0,8.0,100,0.00,,,0.03,Wunderground v.1.15,2013-11-18 03:25:00,
2013-11-17 22:30:00,56.7,56.7,29.85,SSW,196,6.0,15.0,100,0.00,,,0.03,Wunderground v.1.15,2013-11-18 03:30:00,
2013-11-17 22:40:00,56.7,56.7,29.84,South,182,6.0,6.0,100,0.00,,,0.03,Wunderground v.1.15,2013-11-18 03:40:00,
2013-11-17 22:49:00,56.7,56.7,29.83,WSW,240,6.0,6.0,100,0.00,,,0.04,Wunderground v.1.15,2013-11-18 03:49:00,
2013-11-17 22:54:00,56.6,56.6,29.82,SSW,202,5.0,8.0,100,0.00,,,0.04,Wunderground v.1.15,2013-11-18 03:54:00,
2013-11-17 22:59:00,56.6,56.6,29.83,South,180,4.0,8.0,100,0.00,,,0.04,Wunderground v.1.15,2013-11-18 03:59:00,
2013-11-17 23:05:00,56.6,56.6,29.83,SSW,212,5.0,8.0,100,0.00,,,0.04,Wunderground v.1.15,2013-11-18 04:05:00,
2013-11-17 23:10:00,56.7,56.7,29.83,South,186,6.0,6.0,100,0.00,,,0.04,Wunderground v.1.15,2013-11-18 04:10:00,
2013-11-17 23:15:00,56.6,56.6,29.82,South,187,6.0,9.0,100,0.00,,,0.04,Wunderground v.1.15,2013-11-18 04:15:00,
2013-11-17 23:20:00,56.6,56.6,29.82,SSW,198,6.0,6.0,100,0.00,,,0.04,Wunderground v.1.15,2013-11-18 04:20:00,
2013-11-17 23:30:00,56.6,56.6,29.81,South,172,6.0,6.0,100,0.00,,,0.04,Wunderground v.1.15,2013-11-18 04:30:00,
2013-11-17 23:39:00,56.6,56.6,29.80,South,179,5.0,8.0,100,0.00,,,0.04,Wunderground v.1.15,2013-11-18 04:39:00,
2013-11-17 23:44:00,56.7,56.7,29.80,SSW,205,5.0,9.0,100,0.00,,,0.04,Wunderground v.1.15,2013-11-18 04:44:00,
2013-11-17 23:50:00,56.7,56.7,29.79,West,271,5.0,5.0,100,0.00,,,0.04,Wunderground v.1.15,2013-11-18 04:50:00,
2013-11-17 23:55:00,56.7,56.7,29.79,West,273,5.0,9.0,100,0.00,,,0.04,Wunderground v.1.15,2013-11-18 04:55:00,